sensor_id;sensor_type;location;lat;lon;timestamp;pressure;altitude;pressure_sealevel;temperature;humidity
56630;BME280;42502;40.732;-74.254;2023-04-27T00:00:59;101271.38;;;22.58;31.81
56630;BME280;42502;40.732;-74.254;2023-04-27T00:03:00;101275.50;;;22.60;31.71
56630;BME280;42502;40.732;-74.254;2023-04-27T00:05:05;101268.81;;;22.52;31.68
56630;BME280;42502;40.732;-74.254;2023-04-27T00:07:10;101284.75;;;22.61;31.90
56630;BME280;42502;40.732;-74.254;2023-04-27T00:09:11;101290.38;;;22.61;31.93
56630;BME280;42502;40.732;-74.254;2023-04-27T00:11:12;101286.75;;;22.60;31.99
56630;BME280;42502;40.732;-74.254;2023-04-27T00:13:15;101286.75;;;22.60;31.90
56630;BME280;42502;40.732;-74.254;2023-04-27T00:15:16;101280.31;;;22.60;31.86
56630;BME280;42502;40.732;-74.254;2023-04-27T00:17:20;101273.03;;;22.59;31.96
56630;BME280;42502;40.732;-74.254;2023-04-27T00:19:21;101283.94;;;22.60;31.88
56630;BME280;42502;40.732;-74.254;2023-04-27T00:21:22;101277.50;;;22.60;32.05
56630;BME280;42502;40.732;-74.254;2023-04-27T00:23:23;101280.31;;;22.60;31.89
56630;BME280;42502;40.732;-74.254;2023-04-27T00:25:26;101274.09;;;22.54;31.90
56630;BME280;42502;40.732;-74.254;2023-04-27T00:27:27;101285.09;;;22.59;31.92
56630;BME280;42502;40.732;-74.254;2023-04-27T00:29:28;101284.31;;;22.59;32.01
56630;BME280;42502;40.732;-74.254;2023-04-27T00:31:28;101287.94;;;22.59;31.91
56630;BME280;42502;40.732;-74.254;2023-04-27T00:33:29;101279.81;;;22.58;32.01
56630;BME280;42502;40.732;-74.254;2023-04-27T00:35:33;101280.66;;;22.58;31.92
56630;BME280;42502;40.732;-74.254;2023-04-27T00:37:34;101278.66;;;22.59;32.00
56630;BME280;42502;40.732;-74.254;2023-04-27T00:39:35;101287.13;;;22.59;31.99
56630;BME280;42502;40.732;-74.254;2023-04-27T00:41:39;101295.56;;;22.59;31.96
56630;BME280;42502;40.732;-74.254;2023-04-27T00:43:44;101299.53;;;22.58;32.04
56630;BME280;42502;40.732;-74.254;2023-04-27T00:45:45;101305.19;;;22.58;32.10
56630;BME280;42502;40.732;-74.254;2023-04-27T00:47:46;101310.44;;;22.59;31.98
56630;BME280;42502;40.732;-74.254;2023-04-27T00:49:47;101308.00;;;22.58;32.12
56630;BME280;42502;40.732;-74.254;2023-04-27T00:51:49;101303.19;;;22.58;32.09
56630;BME280;42502;40.732;-74.254;2023-04-27T00:53:51;101296.72;;;22.58;32.04
56630;BME280;42502;40.732;-74.254;2023-04-27T00:55:52;101294.75;;;22.58;32.03
56630;BME280;42502;40.732;-74.254;2023-04-27T00:57:57;101290.63;;;22.56;32.22
56630;BME280;42502;40.732;-74.254;2023-04-27T01:00:02;101305.19;;;22.58;32.07
56630;BME280;42502;40.732;-74.254;2023-04-27T01:02:06;101303.19;;;22.58;32.10
56630;BME280;42502;40.732;-74.254;2023-04-27T01:04:07;101305.19;;;22.58;31.78
56630;BME280;42502;40.732;-74.254;2023-04-27T01:06:08;101306.38;;;22.57;32.03
56630;BME280;42502;40.732;-74.254;2023-04-27T01:08:08;101304.38;;;22.57;32.14
56630;BME280;42502;40.732;-74.254;2023-04-27T01:10:09;101298.72;;;22.57;32.01
56630;BME280;42502;40.732;-74.254;2023-04-27T01:12:10;101294.63;;;22.54;32.14
56630;BME280;42502;40.732;-74.254;2023-04-27T01:14:11;101301.91;;;22.56;32.15
56630;BME280;42502;40.732;-74.254;2023-04-27T01:16:12;101292.28;;;22.57;31.86
56630;BME280;42502;40.732;-74.254;2023-04-27T01:18:13;101300.94;;;22.51;31.99
56630;BME280;42502;40.732;-74.254;2023-04-27T01:20:14;101271.19;;;22.38;32.26
56630;BME280;42502;40.732;-74.254;2023-04-27T01:22:15;101310.34;;;22.56;32.23
56630;BME280;42502;40.732;-74.254;2023-04-27T01:24:16;101307.19;;;22.57;32.31
56630;BME280;42502;40.732;-74.254;2023-04-27T01:26:17;101285.25;;;22.50;32.32
56630;BME280;42502;40.732;-74.254;2023-04-27T01:28:18;101303.56;;;22.57;32.32
56630;BME280;42502;40.732;-74.254;2023-04-27T01:30:19;101295.31;;;22.51;32.12
56630;BME280;42502;40.732;-74.254;2023-04-27T01:32:21;101301.91;;;22.56;32.25
56630;BME280;42502;40.732;-74.254;2023-04-27T01:34:25;101300.25;;;22.54;32.38
56630;BME280;42502;40.732;-74.254;2023-04-27T01:36:29;101299.78;;;22.52;32.27
56630;BME280;42502;40.732;-74.254;2023-04-27T01:38:34;101301.09;;;22.55;32.28
56630;BME280;42502;40.732;-74.254;2023-04-27T01:40:36;101299.78;;;22.52;32.52
56630;BME280;42502;40.732;-74.254;2023-04-27T01:42:40;101297.34;;;22.51;32.41
56630;BME280;42502;40.732;-74.254;2023-04-27T01:44:41;101304.72;;;22.56;32.42
56630;BME280;42502;40.732;-74.254;2023-04-27T01:46:42;101303.06;;;22.54;32.57
56630;BME280;42502;40.732;-74.254;2023-04-27T01:48:43;101303.06;;;22.54;32.54
56630;BME280;42502;40.732;-74.254;2023-04-27T01:50:44;101297.78;;;22.53;32.54
56630;BME280;42502;40.732;-74.254;2023-04-27T01:52:47;101297.44;;;22.54;32.42
56630;BME280;42502;40.732;-74.254;2023-04-27T01:54:48;101295.47;;;22.55;32.72
56630;BME280;42502;40.732;-74.254;2023-04-27T01:56:49;101303.06;;;22.54;32.44
56630;BME280;42502;40.732;-74.254;2023-04-27T01:58:52;101292.06;;;22.49;32.49
56630;BME280;42502;40.732;-74.254;2023-04-27T02:00:53;101307.88;;;22.54;32.47
56630;BME280;42502;40.732;-74.254;2023-04-27T02:02:54;101307.44;;;22.52;32.47
56630;BME280;42502;40.732;-74.254;2023-04-27T02:04:56;101305.06;;;22.54;32.53
56630;BME280;42502;40.732;-74.254;2023-04-27T02:06:57;101301.44;;;22.53;32.55
56630;BME280;42502;40.732;-74.254;2023-04-27T02:08:58;101302.59;;;22.52;32.46
56630;BME280;42502;40.732;-74.254;2023-04-27T02:10:59;101303.41;;;22.53;32.50
56630;BME280;42502;40.732;-74.254;2023-04-27T02:13:00;101305.41;;;22.52;32.45
56630;BME280;42502;40.732;-74.254;2023-04-27T02:15:01;101304.25;;;22.53;32.55
56630;BME280;42502;40.732;-74.254;2023-04-27T02:17:03;101296.97;;;22.52;32.50
56630;BME280;42502;40.732;-74.254;2023-04-27T02:19:04;101298.97;;;22.52;32.59
56630;BME280;42502;40.732;-74.254;2023-04-27T02:21:08;101300.16;;;22.51;32.44
56630;BME280;42502;40.732;-74.254;2023-04-27T02:23:12;101296.16;;;22.52;32.48
56630;BME280;42502;40.732;-74.254;2023-04-27T02:25:13;101289.69;;;22.51;32.58
56630;BME280;42502;40.732;-74.254;2023-04-27T02:27:14;101286.06;;;22.51;32.65
56630;BME280;42502;40.732;-74.254;2023-04-27T02:29:14;101279.63;;;22.50;32.41
56630;BME280;42502;40.732;-74.254;2023-04-27T02:31:16;101286.88;;;22.51;32.56
56630;BME280;42502;40.732;-74.254;2023-04-27T02:33:17;101289.22;;;22.49;32.45
56630;BME280;42502;40.732;-74.254;2023-04-27T02:35:18;101282.78;;;22.49;32.41
56630;BME280;42502;40.732;-74.254;2023-04-27T02:37:18;101277.97;;;22.49;32.46
56630;BME280;42502;40.732;-74.254;2023-04-27T02:39:20;101273.50;;;22.48;32.46
56630;BME280;42502;40.732;-74.254;2023-04-27T02:41:21;101269.88;;;22.48;32.71
56630;BME280;42502;40.732;-74.254;2023-04-27T02:43:22;101272.69;;;22.48;32.40
56630;BME280;42502;40.732;-74.254;2023-04-27T02:45:22;101275.50;;;22.48;32.28
56630;BME280;42502;40.732;-74.254;2023-04-27T02:47:23;101271.88;;;22.47;32.36
56630;BME280;42502;40.732;-74.254;2023-04-27T02:49:24;101275.06;;;22.46;32.21
56630;BME280;42502;40.732;-74.254;2023-04-27T02:51:25;101275.88;;;22.46;32.34
56630;BME280;42502;40.732;-74.254;2023-04-27T02:53:27;101277.03;;;22.45;32.27
56630;BME280;42502;40.732;-74.254;2023-04-27T02:55:27;101276.22;;;22.45;32.29
56630;BME280;42502;40.732;-74.254;2023-04-27T02:57:29;101279.84;;;22.45;32.41
56630;BME280;42502;40.732;-74.254;2023-04-27T02:59:30;101277.38;;;22.44;32.34
56630;BME280;42502;40.732;-74.254;2023-04-27T03:01:31;101280.19;;;22.44;32.23
56630;BME280;42502;40.732;-74.254;2023-04-27T03:03:31;101273.75;;;22.43;32.31
56630;BME280;42502;40.732;-74.254;2023-04-27T03:05:33;101283.38;;;22.42;32.40
56630;BME280;42502;40.732;-74.254;2023-04-27T03:07:33;101270.13;;;22.43;32.33
56630;BME280;42502;40.732;-74.254;2023-04-27T03:09:35;101269.28;;;22.42;32.28
56630;BME280;42502;40.732;-74.254;2023-04-27T03:11:35;101269.28;;;22.42;32.41
56630;BME280;42502;40.732;-74.254;2023-04-27T03:13:36;101273.66;;;22.40;32.31
56630;BME280;42502;40.732;-74.254;2023-04-27T03:15:41;101267.66;;;22.41;32.23
56630;BME280;42502;40.732;-74.254;2023-04-27T03:17:42;101262.03;;;22.41;32.31
56630;BME280;42502;40.732;-74.254;2023-04-27T03:19:43;101258.38;;;22.41;32.28
56630;BME280;42502;40.732;-74.254;2023-04-27T03:21:46;101264.38;;;22.39;32.35
56630;BME280;42502;40.732;-74.254;2023-04-27T03:23:47;101259.56;;;22.40;32.17
56630;BME280;42502;40.732;-74.254;2023-04-27T03:25:48;101275.63;;;22.39;32.37
56630;BME280;42502;40.732;-74.254;2023-04-27T03:27:48;101269.19;;;22.39;32.24
56630;BME280;42502;40.732;-74.254;2023-04-27T03:29:51;101279.63;;;22.38;32.26
56630;BME280;42502;40.732;-74.254;2023-04-27T03:31:54;101282.44;;;22.38;32.09
56630;BME280;42502;40.732;-74.254;2023-04-27T03:33:55;101284.44;;;22.38;32.18
56630;BME280;42502;40.732;-74.254;2023-04-27T03:35:57;101288.44;;;22.37;32.18
56630;BME280;42502;40.732;-74.254;2023-04-27T03:37:58;101290.41;;;22.36;32.31
56630;BME280;42502;40.732;-74.254;2023-04-27T03:39:59;101289.59;;;22.35;32.16
56630;BME280;42502;40.732;-74.254;2023-04-27T03:42:00;101293.22;;;22.36;32.09
56630;BME280;42502;40.732;-74.254;2023-04-27T03:44:02;101291.59;;;22.35;32.20
56630;BME280;42502;40.732;-74.254;2023-04-27T03:46:03;101281.03;;;22.32;32.38
56630;BME280;42502;40.732;-74.254;2023-04-27T03:48:04;101285.13;;;22.34;32.13
56630;BME280;42502;40.732;-74.254;2023-04-27T03:50:05;101286.31;;;22.33;32.24
56630;BME280;42502;40.732;-74.254;2023-04-27T03:52:06;101289.13;;;22.33;32.16
56630;BME280;42502;40.732;-74.254;2023-04-27T03:54:07;101287.47;;;22.32;32.22
56630;BME280;42502;40.732;-74.254;2023-04-27T03:56:09;101284.66;;;22.32;32.24
56630;BME280;42502;40.732;-74.254;2023-04-27T03:58:10;101290.31;;;22.32;32.03
56630;BME280;42502;40.732;-74.254;2023-04-27T04:00:11;101285.84;;;22.31;32.25
56630;BME280;42502;40.732;-74.254;2023-04-27T04:02:14;101287.84;;;22.31;32.25
56630;BME280;42502;40.732;-74.254;2023-04-27T04:04:17;101280.53;;;22.30;32.09
56630;BME280;42502;40.732;-74.254;2023-04-27T04:06:18;101283.34;;;22.30;32.09
56630;BME280;42502;40.732;-74.254;2023-04-27T04:08:19;101280.53;;;22.30;32.07
56630;BME280;42502;40.732;-74.254;2023-04-27T04:10:20;101271.63;;;22.28;32.13
56630;BME280;42502;40.732;-74.254;2023-04-27T04:12:20;101271.28;;;22.29;32.23
56630;BME280;42502;40.732;-74.254;2023-04-27T04:14:21;101280.88;;;22.28;32.14
56630;BME280;42502;40.732;-74.254;2023-04-27T04:16:22;101275.59;;;22.27;32.06
56630;BME280;42502;40.732;-74.254;2023-04-27T04:18:23;101285.69;;;22.28;32.15
56630;BME280;42502;40.732;-74.254;2023-04-27T04:20:24;101280.78;;;22.25;32.00
56630;BME280;42502;40.732;-74.254;2023-04-27T04:22:25;101286.84;;;22.27;32.01
56630;BME280;42502;40.732;-74.254;2023-04-27T04:24:26;101284.41;;;22.25;32.04
56630;BME280;42502;40.732;-74.254;2023-04-27T04:26:27;101282.41;;;22.26;32.09
56630;BME280;42502;40.732;-74.254;2023-04-27T04:28:28;101287.56;;;22.24;32.04
56630;BME280;42502;40.732;-74.254;2023-04-27T04:30:29;101282.75;;;22.24;32.03
56630;BME280;42502;40.732;-74.254;2023-04-27T04:32:29;101288.38;;;22.24;32.09
56630;BME280;42502;40.732;-74.254;2023-04-27T04:34:30;101285.91;;;22.23;32.15
56630;BME280;42502;40.732;-74.254;2023-04-27T04:36:32;101283.09;;;22.23;32.09
56630;BME280;42502;40.732;-74.254;2023-04-27T04:38:33;101279.47;;;22.22;31.88
56630;BME280;42502;40.732;-74.254;2023-04-27T04:40:34;101280.63;;;22.21;32.22
56630;BME280;42502;40.732;-74.254;2023-04-27T04:42:36;101286.25;;;22.21;32.03
56630;BME280;42502;40.732;-74.254;2023-04-27T04:44:40;101285.44;;;22.21;32.02
56630;BME280;42502;40.732;-74.254;2023-04-27T04:46:41;101285.44;;;22.21;32.06
56630;BME280;42502;40.732;-74.254;2023-04-27T04:48:42;101266.91;;;22.19;31.87
56630;BME280;42502;40.732;-74.254;2023-04-27T04:50:43;101262.47;;;22.18;32.00
56630;BME280;42502;40.732;-74.254;2023-04-27T04:52:44;101260.00;;;22.17;31.96
56630;BME280;42502;40.732;-74.254;2023-04-27T04:54:45;101259.66;;;22.18;32.08
56630;BME280;42502;40.732;-74.254;2023-04-27T04:56:46;101260.81;;;22.17;32.09
56630;BME280;42502;40.732;-74.254;2023-04-27T04:58:50;101253.53;;;22.16;31.98
56630;BME280;42502;40.732;-74.254;2023-04-27T05:00:51;101250.72;;;22.16;32.06
56630;BME280;42502;40.732;-74.254;2023-04-27T05:02:57;101246.31;;;22.15;31.88
56630;BME280;42502;40.732;-74.254;2023-04-27T05:04:58;101243.47;;;22.15;31.99
56630;BME280;42502;40.732;-74.254;2023-04-27T05:06:58;101247.47;;;22.14;31.98
56630;BME280;42502;40.732;-74.254;2023-04-27T05:08:59;101234.44;;;22.10;31.96
56630;BME280;42502;40.732;-74.254;2023-04-27T05:11:00;101243.00;;;22.13;31.84
56630;BME280;42502;40.732;-74.254;2023-04-27T05:13:01;101238.56;;;22.12;31.95
56630;BME280;42502;40.732;-74.254;2023-04-27T05:15:02;101236.44;;;22.09;31.94
56630;BME280;42502;40.732;-74.254;2023-04-27T05:17:03;101235.25;;;22.10;31.94
56630;BME280;42502;40.732;-74.254;2023-04-27T05:19:04;101227.66;;;22.11;31.81
56630;BME280;42502;40.732;-74.254;2023-04-27T05:21:12;101229.16;;;22.08;31.87
56630;BME280;42502;40.732;-74.254;2023-04-27T05:23:16;101221.91;;;22.07;31.92
56630;BME280;42502;40.732;-74.254;2023-04-27T05:25:17;101219.56;;;22.09;31.91
56630;BME280;42502;40.732;-74.254;2023-04-27T05:27:21;101227.16;;;22.09;31.87
56630;BME280;42502;40.732;-74.254;2023-04-27T05:29:22;101226.34;;;22.08;32.00
56630;BME280;42502;40.732;-74.254;2023-04-27T05:31:23;101217.09;;;22.08;31.72
56630;BME280;42502;40.732;-74.254;2023-04-27T05:33:24;101221.91;;;22.07;31.94
56630;BME280;42502;40.732;-74.254;2023-04-27T05:35:25;101223.09;;;22.06;31.86
56630;BME280;42502;40.732;-74.254;2023-04-27T05:37:26;101225.06;;;22.06;31.73
56630;BME280;42502;40.732;-74.254;2023-04-27T05:39:26;101234.34;;;22.06;31.84
56630;BME280;42502;40.732;-74.254;2023-04-27T05:41:28;101228.94;;;22.01;31.70
56630;BME280;42502;40.732;-74.254;2023-04-27T05:43:29;101236.66;;;22.04;31.97
56630;BME280;42502;40.732;-74.254;2023-04-27T05:45:30;101235.84;;;22.04;31.87
56630;BME280;42502;40.732;-74.254;2023-04-27T05:47:31;101229.63;;;21.98;31.99
56630;BME280;42502;40.732;-74.254;2023-04-27T05:49:32;101232.59;;;22.02;31.83
56630;BME280;42502;40.732;-74.254;2023-04-27T05:51:33;101241.84;;;22.02;31.87
56630;BME280;42502;40.732;-74.254;2023-04-27T05:53:40;101234.56;;;22.01;31.84
56630;BME280;42502;40.732;-74.254;2023-04-27T05:55:41;101235.72;;;22.00;31.69
56630;BME280;42502;40.732;-74.254;2023-04-27T05:57:42;101240.19;;;22.01;31.70
56630;BME280;42502;40.732;-74.254;2023-04-27T05:59:43;101253.78;;;21.99;31.92
56630;BME280;42502;40.732;-74.254;2023-04-27T06:01:44;101255.28;;;21.96;31.93
56630;BME280;42502;40.732;-74.254;2023-04-27T06:03:48;101249.06;;;21.91;31.68
56630;BME280;42502;40.732;-74.254;2023-04-27T06:05:56;101256.94;;;21.97;31.79
56630;BME280;42502;40.732;-74.254;2023-04-27T06:07:57;101247.66;;;21.97;31.90
56630;BME280;42502;40.732;-74.254;2023-04-27T06:10:00;101243.09;;;21.92;31.80
56630;BME280;42502;40.732;-74.254;2023-04-27T06:12:01;101236.78;;;21.95;31.73
56630;BME280;42502;40.732;-74.254;2023-04-27T06:14:03;101233.16;;;21.95;31.78
56630;BME280;42502;40.732;-74.254;2023-04-27T06:16:04;101244.41;;;21.95;31.72
56630;BME280;42502;40.732;-74.254;2023-04-27T06:18:05;101231.50;;;21.94;31.87
56630;BME280;42502;40.732;-74.254;2023-04-27T06:20:06;101230.69;;;21.93;31.80
56630;BME280;42502;40.732;-74.254;2023-04-27T06:22:09;101222.59;;;21.92;31.70
56630;BME280;42502;40.732;-74.254;2023-04-27T06:24:11;101234.66;;;21.92;31.88
56630;BME280;42502;40.732;-74.254;2023-04-27T06:26:11;101235.84;;;21.91;31.67
56630;BME280;42502;40.732;-74.254;2023-04-27T06:28:12;101237.81;;;21.91;31.67
56630;BME280;42502;40.732;-74.254;2023-04-27T06:30:13;101239.81;;;21.90;31.76
56630;BME280;42502;40.732;-74.254;2023-04-27T06:32:14;101225.75;;;21.90;31.60
56630;BME280;42502;40.732;-74.254;2023-04-27T06:34:15;101226.91;;;21.89;31.57
56630;BME280;42502;40.732;-74.254;2023-04-27T06:36:16;101228.91;;;21.89;31.52
56630;BME280;42502;40.732;-74.254;2023-04-27T06:38:17;101220.47;;;21.89;31.62
56630;BME280;42502;40.732;-74.254;2023-04-27T06:40:18;101228.09;;;21.88;31.68
56630;BME280;42502;40.732;-74.254;2023-04-27T06:42:19;101231.28;;;21.87;31.60
56630;BME280;42502;40.732;-74.254;2023-04-27T06:44:19;101225.66;;;21.87;31.62
56630;BME280;42502;40.732;-74.254;2023-04-27T06:46:23;101228.31;;;21.83;31.60
56630;BME280;42502;40.732;-74.254;2023-04-27T06:48:24;101227.97;;;21.85;31.65
56630;BME280;42502;40.732;-74.254;2023-04-27T06:50:27;101234.28;;;21.81;31.69
56630;BME280;42502;40.732;-74.254;2023-04-27T06:52:31;101229.16;;;21.83;31.62
56630;BME280;42502;40.732;-74.254;2023-04-27T06:54:32;101236.75;;;21.83;31.67
56630;BME280;42502;40.732;-74.254;2023-04-27T06:56:33;101237.94;;;21.82;31.65
56630;BME280;42502;40.732;-74.254;2023-04-27T06:58:37;101234.28;;;21.81;31.61
56630;BME280;42502;40.732;-74.254;2023-04-27T07:00:38;101240.75;;;21.82;31.57
56630;BME280;42502;40.732;-74.254;2023-04-27T07:02:39;101238.31;;;21.80;31.50
56630;BME280;42502;40.732;-74.254;2023-04-27T07:04:39;101229.38;;;21.78;31.53
56630;BME280;42502;40.732;-74.254;2023-04-27T07:06:40;101229.38;;;21.78;31.62
56630;BME280;42502;40.732;-74.254;2023-04-27T07:08:41;101229.03;;;21.80;31.60
56630;BME280;42502;40.732;-74.254;2023-04-27T07:10:43;101227.75;;;21.77;31.64
56630;BME280;42502;40.732;-74.254;2023-04-27T07:12:44;101218.72;;;21.72;31.85
56630;BME280;42502;40.732;-74.254;2023-04-27T07:14:44;101214.84;;;21.76;31.64
56630;BME280;42502;40.732;-74.254;2023-04-27T07:16:45;101214.84;;;21.76;31.56
56630;BME280;42502;40.732;-74.254;2023-04-27T07:18:46;101218.00;;;21.75;31.57
56630;BME280;42502;40.732;-74.254;2023-04-27T07:20:47;101221.16;;;21.73;31.41
56630;BME280;42502;40.732;-74.254;2023-04-27T07:22:48;101222.69;;;21.71;31.41
56630;BME280;42502;40.732;-74.254;2023-04-27T07:24:49;101214.59;;;21.69;31.84
56630;BME280;42502;40.732;-74.254;2023-04-27T07:26:50;101216.72;;;21.72;31.45
56630;BME280;42502;40.732;-74.254;2023-04-27T07:28:51;101219.53;;;21.72;31.33
56630;BME280;42502;40.732;-74.254;2023-04-27T07:30:52;101218.72;;;21.72;31.56
56630;BME280;42502;40.732;-74.254;2023-04-27T07:32:53;101222.69;;;21.71;31.45
56630;BME280;42502;40.732;-74.254;2023-04-27T07:34:54;101212.94;;;21.68;31.68
56630;BME280;42502;40.732;-74.254;2023-04-27T07:36:58;101223.03;;;21.69;31.38
56630;BME280;42502;40.732;-74.254;2023-04-27T07:38:59;101218.56;;;21.68;31.54
56630;BME280;42502;40.732;-74.254;2023-04-27T07:41:03;101221.63;;;21.63;31.48
56630;BME280;42502;40.732;-74.254;2023-04-27T07:43:05;101226.19;;;21.68;31.50
56630;BME280;42502;40.732;-74.254;2023-04-27T07:45:07;101226.53;;;21.66;31.50
56630;BME280;42502;40.732;-74.254;2023-04-27T07:47:11;101215.28;;;21.66;31.54
56630;BME280;42502;40.732;-74.254;2023-04-27T07:49:12;101206.06;;;21.65;31.51
56630;BME280;42502;40.732;-74.254;2023-04-27T07:51:13;101204.41;;;21.64;31.56
56630;BME280;42502;40.732;-74.254;2023-04-27T07:53:16;101220.47;;;21.64;31.56
56630;BME280;42502;40.732;-74.254;2023-04-27T07:55:17;101220.47;;;21.64;31.41
56630;BME280;42502;40.732;-74.254;2023-04-27T07:57:24;101238.03;;;21.61;31.66
56630;BME280;42502;40.732;-74.254;2023-04-27T07:59:27;101230.41;;;21.61;31.38
56630;BME280;42502;40.732;-74.254;2023-04-27T08:01:28;101234.03;;;21.62;31.45
56630;BME280;42502;40.732;-74.254;2023-04-27T08:03:29;101243.66;;;21.61;31.34
56630;BME280;42502;40.732;-74.254;2023-04-27T08:05:30;101244.47;;;21.61;31.53
56630;BME280;42502;40.732;-74.254;2023-04-27T08:07:33;101246.81;;;21.59;31.25
56630;BME280;42502;40.732;-74.254;2023-04-27T08:09:36;101246.31;;;21.57;31.68
56630;BME280;42502;40.732;-74.254;2023-04-27T08:11:37;101239.53;;;21.58;31.47
56630;BME280;42502;40.732;-74.254;2023-04-27T08:13:38;101239.53;;;21.58;31.55
56630;BME280;42502;40.732;-74.254;2023-04-27T08:15:39;101223.59;;;21.50;31.55
56630;BME280;42502;40.732;-74.254;2023-04-27T08:17:40;101237.41;;;21.55;31.65
56630;BME280;42502;40.732;-74.254;2023-04-27T08:19:41;101239.06;;;21.56;31.56
56630;BME280;42502;40.732;-74.254;2023-04-27T08:21:42;101244.69;;;21.56;31.50
56630;BME280;42502;40.732;-74.254;2023-04-27T08:23:43;101235.41;;;21.56;31.47
56630;BME280;42502;40.732;-74.254;2023-04-27T08:25:44;101234.94;;;21.54;31.41
56630;BME280;42502;40.732;-74.254;2023-04-27T08:27:44;101241.38;;;21.54;31.47
56630;BME280;42502;40.732;-74.254;2023-04-27T08:29:46;101239.75;;;21.53;31.69
56630;BME280;42502;40.732;-74.254;2023-04-27T08:31:47;101235.66;;;21.51;31.54
56630;BME280;42502;40.732;-74.254;2023-04-27T08:33:48;101236.13;;;21.53;31.48
56630;BME280;42502;40.732;-74.254;2023-04-27T08:35:52;101232.03;;;21.50;31.42
56630;BME280;42502;40.732;-74.254;2023-04-27T08:37:53;101228.88;;;21.52;31.46
56630;BME280;42502;40.732;-74.254;2023-04-27T08:39:53;101218.78;;;21.51;31.39
56630;BME280;42502;40.732;-74.254;2023-04-27T08:41:55;101232.03;;;21.50;31.47
56630;BME280;42502;40.732;-74.254;2023-04-27T08:43:56;101238.78;;;21.49;31.69
56630;BME280;42502;40.732;-74.254;2023-04-27T08:45:57;101229.53;;;21.48;31.49
56630;BME280;42502;40.732;-74.254;2023-04-27T08:47:57;101221.78;;;21.45;31.59
56630;BME280;42502;40.732;-74.254;2023-04-27T08:49:58;101228.69;;;21.48;31.62
56630;BME280;42502;40.732;-74.254;2023-04-27T08:52:00;101220.59;;;21.46;31.52
56630;BME280;42502;40.732;-74.254;2023-04-27T08:54:01;101216.88;;;21.42;31.43
56630;BME280;42502;40.732;-74.254;2023-04-27T08:56:03;101214.53;;;21.44;31.49
56630;BME280;42502;40.732;-74.254;2023-04-27T08:58:04;101215.69;;;21.43;31.36
56630;BME280;42502;40.732;-74.254;2023-04-27T09:00:06;101224.94;;;21.44;31.40
56630;BME280;42502;40.732;-74.254;2023-04-27T09:02:19;101219.69;;;21.42;31.42
56630;BME280;42502;40.732;-74.254;2023-04-27T09:04:20;101224.09;;;21.43;31.38
56630;BME280;42502;40.732;-74.254;2023-04-27T09:06:34;101223.19;;;21.39;31.63
56630;BME280;42502;40.732;-74.254;2023-04-27T09:08:43;101207.13;;;21.40;31.41
56630;BME280;42502;40.732;-74.254;2023-04-27T09:10:46;101211.59;;;21.41;31.47
56630;BME280;42502;40.732;-74.254;2023-04-27T09:12:56;101209.13;;;21.39;31.56
56630;BME280;42502;40.732;-74.254;2023-04-27T09:15:01;101205.13;;;21.40;31.65
56630;BME280;42502;40.732;-74.254;2023-04-27T09:17:06;101212.75;;;21.40;31.48
56630;BME280;42502;40.732;-74.254;2023-04-27T09:19:07;101198.44;;;21.33;31.25
56630;BME280;42502;40.732;-74.254;2023-04-27T09:21:08;101215.91;;;21.38;31.40
56630;BME280;42502;40.732;-74.254;2023-04-27T09:23:09;101216.25;;;21.37;31.32
56630;BME280;42502;40.732;-74.254;2023-04-27T09:25:28;101222.22;;;21.35;31.57
56630;BME280;42502;40.732;-74.254;2023-04-27T09:27:29;101226.66;;;21.36;31.60
56630;BME280;42502;40.732;-74.254;2023-04-27T09:29:37;101227.34;;;21.33;31.51
56630;BME280;42502;40.732;-74.254;2023-04-27T09:31:38;101233.47;;;21.35;31.39
56630;BME280;42502;40.732;-74.254;2023-04-27T09:33:38;101236.28;;;21.35;31.39
56630;BME280;42502;40.732;-74.254;2023-04-27T09:35:41;101232.97;;;21.33;31.78
56630;BME280;42502;40.732;-74.254;2023-04-27T09:37:41;101237.78;;;21.33;31.54
56630;BME280;42502;40.732;-74.254;2023-04-27T09:39:44;101226.06;;;21.30;31.41
56630;BME280;42502;40.732;-74.254;2023-04-27T09:41:46;101238.94;;;21.32;31.57
56630;BME280;42502;40.732;-74.254;2023-04-27T09:43:48;101244.56;;;21.32;31.44
56630;BME280;42502;40.732;-74.254;2023-04-27T09:45:50;101245.75;;;21.30;31.44
56630;BME280;42502;40.732;-74.254;2023-04-27T09:47:51;101247.72;;;21.30;31.37
56630;BME280;42502;40.732;-74.254;2023-04-27T09:49:52;101251.72;;;21.29;31.53
56630;BME280;42502;40.732;-74.254;2023-04-27T09:51:54;101260.94;;;21.29;31.50
56630;BME280;42502;40.732;-74.254;2023-04-27T09:53:58;101269.38;;;21.29;31.46
56630;BME280;42502;40.732;-74.254;2023-04-27T10:02:44;101263.66;;;21.26;31.33
56630;BME280;42502;40.732;-74.254;2023-04-27T10:07:10;101266.31;;;21.22;31.38
56630;BME280;42502;40.732;-74.254;2023-04-27T10:09:14;101278.84;;;21.25;31.17
56630;BME280;42502;40.732;-74.254;2023-04-27T10:11:17;101281.53;;;21.21;31.45
56630;BME280;42502;40.732;-74.254;2023-04-27T10:13:24;101287.63;;;21.23;31.40
56630;BME280;42502;40.732;-74.254;2023-04-27T10:15:27;101285.16;;;21.22;31.67
56630;BME280;42502;40.732;-74.254;2023-04-27T10:17:34;101288.78;;;21.22;31.46
56630;BME280;42502;40.732;-74.254;2023-04-27T10:19:36;101277.88;;;21.21;31.52
56630;BME280;42502;40.732;-74.254;2023-04-27T10:22:00;101274.25;;;21.20;31.49
56630;BME280;42502;40.732;-74.254;2023-04-27T10:24:08;101276.72;;;21.22;31.52
56630;BME280;42502;40.732;-74.254;2023-04-27T10:26:11;101270.66;;;21.20;31.52
56630;BME280;42502;40.732;-74.254;2023-04-27T10:28:16;101263.38;;;21.19;31.46
56630;BME280;42502;40.732;-74.254;2023-04-27T10:30:38;101273.47;;;21.20;31.35